Melrose, Minnesota
Current Conditions -  °F | °C
As of 5:53 PM on Sunday 21 Dec 2014 (Local Time) from KD39 Reporting Station
Moderate Fog Moderate Fog  
Wind Chill: 25°   Ceiling: 300
Heat Index: 33°   Visibility: 0.5mi
Dew Point: 33°   Wind: 10mph
Humidity: 100%   Direction: 130°SE
Pressure: 29.65"   Gusts: NA
Location:  45.67°N, 94.81°W
Report Text: KD39 212353Z AUTO 13009KT 1/2SM FG OVC003 01/01 A2965 RMK AO2 T00060006 10006 20000
Loading
Personal Weather Stations






























Interactive Weather Map New forecast layout! Learn more

10-Day Weather Forecast

Advertisements
Track Severe Weather on mobile